Time;durP1;ratioP1;P1;durP2;ratioP2;P2;SDS_P1;SDS_P2;PMS_P1;PMS_P2;Temp;Humidity;BMP_temperature;BMP_pressure;BME280_temperature;BME280_humidity;BME280_pressure;Samples;Min_cycle;Max_cycle;Signal;HPM_P1;HPM_P2
2023/01/03 03:02:05;;;;;;;7.60;7.20;;;8.20;99.90;;;;;;5277312;23;20601;-77
2023/01/03 03:04:35;;;;;;;7.73;7.23;;;8.20;99.90;;;;;;4916578;29;20268;-80
2023/01/03 03:07:07;;;;;;;7.73;7.33;;;8.20;99.90;;;;;;4919438;29;20199;-78
2023/01/03 03:13:11;;;;;;;7.70;7.30;;;8.20;99.90;;;;;;4911699;29;20716;-78
2023/01/03 03:15:05;;;;;;;7.90;7.40;;;8.20;99.90;;;;;;4919388;29;20208;-80
2023/01/03 03:17:33;;;;;;;8.20;7.70;;;8.20;99.90;;;;;;4919832;29;20192;-80
2023/01/03 03:25:37;;;;;;;8.40;7.90;;;8.20;99.90;;;;;;4926838;29;20582;-78
2023/01/03 03:31:03;;;;;;;8.80;8.10;;;8.20;99.90;;;;;;4905737;29;20235;-78
2023/01/03 03:33:35;;;;;;;9.00;8.30;;;8.20;99.90;;;;;;4917724;29;20243;-77
2023/01/03 03:36:05;;;;;;;9.17;8.57;;;8.10;99.90;;;;;;4917677;29;20251;-78
2023/01/03 03:38:35;;;;;;;9.20;8.37;;;8.10;99.90;;;;;;4917508;29;20736;-80
2023/01/03 03:46:53;;;;;;;8.70;8.20;;;8.10;99.90;;;;;;4918180;29;20192;-79
2023/01/03 03:49:38;;;;;;;8.60;8.00;;;8.00;99.90;;;;;;4916834;29;20267;-76
2023/01/03 03:52:09;;;;;;;8.07;7.57;;;8.10;99.90;;;;;;4915348;29;20342;-77
2023/01/03 03:54:38;;;;;;;8.20;7.70;;;8.00;99.90;;;;;;4916125;29;20240;-77
2023/01/03 03:57:12;;;;;;;8.43;7.93;;;8.00;99.90;;;;;;4916109;29;20756;-77
2023/01/03 03:59:41;;;;;;;9.10;8.30;;;8.00;99.90;;;;;;4919007;29;20272;-79
2023/01/03 04:02:11;;;;;;;8.30;7.80;;;8.00;99.90;;;;;;4920844;29;20228;-78
2023/01/03 04:04:44;;;;;;;8.73;8.17;;;8.00;99.90;;;;;;4918374;29;20212;-79
2023/01/03 04:07:16;;;;;;;8.47;7.97;;;7.90;99.90;;;;;;4914991;29;20729;-76
2023/01/03 04:09:43;;;;;;;8.77;8.23;;;7.90;99.90;;;;;;4918186;29;20211;-77
2023/01/03 04:12:09;;;;;;;8.60;8.10;;;7.90;99.90;;;;;;4916440;29;20223;-78
2023/01/03 04:14:36;;;;;;;8.83;8.23;;;7.90;99.90;;;;;;4913868;29;20267;-78
2023/01/03 04:17:03;;;;;;;8.97;8.37;;;7.90;99.90;;;;;;4917370;29;20748;-78
2023/01/03 04:19:30;;;;;;;8.87;8.27;;;7.90;99.90;;;;;;4916581;29;20223;-78
2023/01/03 04:21:58;;;;;;;9.27;8.77;;;7.90;99.90;;;;;;4917081;29;20228;-78
2023/01/03 04:24:25;;;;;;;9.50;8.83;;;7.80;99.90;;;;;;4916548;29;20207;-78
2023/01/03 04:26:52;;;;;;;9.33;8.73;;;7.80;99.90;;;;;;4918738;29;20220;-77
2023/01/03 04:29:18;;;;;;;8.73;8.23;;;7.70;99.90;;;;;;4919135;29;20255;-77
2023/01/03 04:31:45;;;;;;;9.10;8.50;;;7.70;99.90;;;;;;4918543;29;20216;-78
2023/01/03 04:34:12;;;;;;;8.53;8.03;;;7.60;99.90;;;;;;4917797;29;20200;-79
2023/01/03 04:36:39;;;;;;;8.60;8.10;;;7.60;99.90;;;;;;4919490;29;20259;-80
2023/01/03 04:39:07;;;;;;;8.70;8.20;;;7.60;99.90;;;;;;4918861;29;20260;-81
2023/01/03 04:41:34;;;;;;;8.90;8.30;;;7.50;99.90;;;;;;4911806;29;20252;-80
2023/01/03 04:44:03;;;;;;;9.23;8.63;;;7.50;99.90;;;;;;4917610;29;20207;-79
2023/01/03 04:46:32;;;;;;;8.90;8.40;;;7.50;99.90;;;;;;4916246;29;20200;-79
2023/01/03 04:49:00;;;;;;;9.30;8.70;;;7.40;99.90;;;;;;4917597;29;20268;-79
2023/01/03 04:51:27;;;;;;;9.27;8.67;;;7.50;99.90;;;;;;4917677;29;20215;-80
2023/01/03 04:53:55;;;;;;;9.47;8.93;;;7.40;99.90;;;;;;4917748;29;20662;-79
2023/01/03 04:56:27;;;;;;;9.43;8.83;;;7.50;99.90;;;;;;4917333;29;20731;-79
2023/01/03 04:58:54;;;;;;;9.40;8.80;;;7.50;99.90;;;;;;4917920;29;20208;-79
2023/01/03 05:01:22;;;;;;;10.27;9.60;;;7.40;99.90;;;;;;4917627;29;20280;-81
2023/01/03 05:03:49;;;;;;;9.80;9.20;;;7.50;99.90;;;;;;4919809;29;20208;-81
2023/01/03 05:06:16;;;;;;;9.77;9.17;;;7.50;99.90;;;;;;4917080;29;20275;-84
2023/01/03 05:08:45;;;;;;;9.77;9.17;;;7.50;99.90;;;;;;4917023;29;20211;-78
2023/01/03 05:11:11;;;;;;;10.20;9.50;;;7.50;99.90;;;;;;4917519;29;20219;-79
2023/01/03 05:13:39;;;;;;;9.40;8.90;;;7.50;99.90;;;;;;4919096;29;20219;-79
2023/01/03 05:16:08;;;;;;;10.00;9.30;;;7.50;99.90;;;;;;4918763;29;20248;-79
2023/01/03 05:18:35;;;;;;;10.30;9.60;;;7.50;99.90;;;;;;4919256;29;20630;-78
2023/01/03 05:26:39;;;;;;;10.10;9.40;;;7.60;99.90;;;;;;4910504;29;20334;-78
2023/01/03 05:29:08;;;;;;;9.90;9.30;;;7.60;99.90;;;;;;4918121;29;20200;-79
2023/01/03 05:31:35;;;;;;;9.90;9.30;;;7.60;99.90;;;;;;4916044;29;20248;-78
2023/01/03 05:34:03;;;;;;;9.70;9.10;;;7.60;99.90;;;;;;4917812;29;20200;-79
2023/01/03 05:36:29;;;;;;;9.40;8.90;;;7.60;99.90;;;;;;4916838;29;20645;-79
2023/01/03 05:38:56;;;;;;;9.93;9.33;;;7.50;99.90;;;;;;4918206;29;20203;-79
2023/01/03 05:44:09;;;;;;;10.33;9.70;;;7.50;99.90;;;;;;4916374;29;20419;-78
2023/01/03 05:46:36;;;;;;;10.27;9.57;;;7.40;99.90;;;;;;4916883;29;20204;-79
2023/01/03 05:49:03;;;;;;;10.80;10.10;;;7.40;99.90;;;;;;4916366;29;20228;-79
2023/01/03 05:51:30;;;;;;;10.40;9.70;;;7.40;99.90;;;;;;4915615;29;20643;-79
2023/01/03 05:53:56;;;;;;;10.27;9.57;;;7.30;99.90;;;;;;4916450;29;20255;-79
2023/01/03 05:56:23;;;;;;;10.00;9.40;;;7.30;99.90;;;;;;4916017;29;20208;-79
2023/01/03 05:58:50;;;;;;;10.23;9.63;;;7.30;99.90;;;;;;4916212;29;20204;-79
2023/01/03 06:01:18;;;;;;;9.90;9.30;;;7.30;99.90;;;;;;4915414;29;20239;-79
2023/01/03 06:03:47;;;;;;;10.37;9.60;;;7.40;99.90;;;;;;4916845;29;20286;-78
2023/01/03 06:06:15;;;;;;;9.57;8.97;;;7.40;99.90;;;;;;4915785;29;20259;-79
2023/01/03 06:08:42;;;;;;;9.83;9.13;;;7.40;99.90;;;;;;4916137;29;20863;-79
2023/01/03 06:11:10;;;;;;;10.00;9.40;;;7.40;99.90;;;;;;4915039;29;20254;-79
2023/01/03 06:13:37;;;;;;;10.33;9.63;;;7.40;99.90;;;;;;4917076;29;20272;-78
2023/01/03 06:18:47;;;;;;;10.20;9.60;;;7.30;99.90;;;;;;4920103;29;20231;-79
2023/01/03 06:21:14;;;;;;;10.63;9.93;;;7.40;99.90;;;;;;4919847;29;20646;-78
2023/01/03 06:23:41;;;;;;;10.57;9.87;;;7.30;99.90;;;;;;4918983;29;20208;-79
2023/01/03 06:26:08;;;;;;;10.37;9.67;;;7.30;99.90;;;;;;4920628;29;20192;-78
2023/01/03 06:28:34;;;;;;;11.77;10.83;;;7.30;99.90;;;;;;4919614;29;20192;-79
2023/01/03 06:31:03;;;;;;;10.90;10.20;;;7.30;99.90;;;;;;4918621;29;20239;-79
2023/01/03 06:33:30;;;;;;;11.00;10.30;;;7.20;99.90;;;;;;4916659;29;20223;-79
2023/01/03 06:36:02;;;;;;;11.17;10.47;;;7.20;99.90;;;;;;4920445;29;20262;-78
2023/01/03 06:38:29;;;;;;;11.67;10.80;;;7.20;99.90;;;;;;4911915;29;20264;-79
2023/01/03 06:40:55;;;;;;;11.43;10.73;;;7.10;99.90;;;;;;4919582;29;20239;-79
2023/01/03 06:43:22;;;;;;;11.67;10.80;;;7.10;99.90;;;;;;4920297;29;20204;-79
2023/01/03 06:54:06;;;;;;;11.97;11.27;;;7.10;99.90;;;;;;4920237;29;20211;-78
2023/01/03 06:56:33;;;;;;;11.83;11.13;;;7.10;99.90;;;;;;4920163;29;20223;-79
2023/01/03 06:59:00;;;;;;;11.80;11.10;;;7.10;99.90;;;;;;4919935;29;20603;-79
2023/01/03 07:01:27;;;;;;;11.90;11.10;;;7.10;99.90;;;;;;4915042;29;20235;-79
2023/01/03 07:03:54;;;;;;;12.07;11.37;;;7.10;99.90;;;;;;4918920;29;20211;-79
2023/01/03 07:06:26;;;;;;;11.97;11.27;;;7.00;99.90;;;;;;4920218;29;20202;-79
2023/01/03 07:08:53;;;;;;;11.90;11.20;;;7.00;99.90;;;;;;4918696;29;20208;-79
2023/01/03 07:11:22;;;;;;;12.47;11.67;;;7.00;99.90;;;;;;4918649;29;20588;-79
2023/01/03 07:13:57;;;;;;;12.30;11.50;;;7.00;99.90;;;;;;4919275;29;20223;-79
2023/01/03 07:16:25;;;;;;;12.33;11.57;;;6.90;99.90;;;;;;4916654;29;20195;-79
2023/01/03 07:18:52;;;;;;;13.23;12.13;;;6.90;99.90;;;;;;4920160;29;20196;-79
2023/01/03 07:21:19;;;;;;;12.70;11.90;;;6.80;99.90;;;;;;4918351;29;20259;-79
2023/01/03 07:23:47;;;;;;;12.70;11.70;;;6.80;99.90;;;;;;4919697;29;20252;-79
2023/01/03 07:26:14;;;;;;;12.17;11.47;;;6.70;99.90;;;;;;4918644;29;20536;-77
2023/01/03 07:28:41;;;;;;;12.30;11.40;;;6.70;99.90;;;;;;4919569;29;20226;-79
2023/01/03 07:31:08;;;;;;;13.03;12.03;;;6.60;99.90;;;;;;4918708;29;20216;-79
2023/01/03 07:33:36;;;;;;;12.60;11.67;;;6.60;99.90;;;;;;4917867;29;20196;-78
2023/01/03 07:36:05;;;;;;;13.33;12.43;;;6.60;99.90;;;;;;4919256;29;20244;-79
2023/01/03 07:38:32;;;;;;;11.83;11.10;;;6.60;99.90;;;;;;4917842;29;20237;-78
2023/01/03 07:41:01;;;;;;;12.60;11.70;;;6.60;99.90;;;;;;4917150;29;20283;-78
2023/01/03 07:43:36;;;;;;;12.53;11.60;;;6.60;99.90;;;;;;4911496;29;20199;-78
2023/01/03 07:46:09;;;;;;;12.40;11.60;;;6.50;99.90;;;;;;4918173;29;20195;-79
2023/01/03 07:48:36;;;;;;;12.93;12.03;;;6.60;99.90;;;;;;4919134;29;20266;-79
2023/01/03 07:51:04;;;;;;;12.70;11.90;;;6.60;99.90;;;;;;4916962;29;20233;-79
2023/01/03 07:53:31;;;;;;;12.27;11.40;;;6.70;99.90;;;;;;4911681;29;20188;-78
2023/01/03 07:56:05;;;;;;;12.80;11.93;;;6.70;99.90;;;;;;4915594;29;20202;-79
2023/01/03 07:58:32;;;;;;;12.73;11.83;;;6.70;99.90;;;;;;4917036;29;20203;-78
2023/01/03 08:01:04;;;;;;;13.17;12.20;;;6.80;99.90;;;;;;4916252;29;20286;-79
2023/01/03 08:03:31;;;;;;;12.53;11.63;;;6.80;99.90;;;;;;4911497;29;20653;-79
2023/01/03 08:06:00;;;;;;;12.23;11.43;;;6.90;99.90;;;;;;4919156;29;20203;-79
2023/01/03 08:08:27;;;;;;;12.53;11.70;;;6.90;99.90;;;;;;4905658;29;20211;-78
2023/01/03 08:13:41;;;;;;;12.33;11.53;;;7.00;99.90;;;;;;4911228;29;20581;-78
2023/01/03 08:16:10;;;;;;;12.23;11.43;;;7.20;99.90;;;;;;4917610;29;20200;-77
2023/01/03 08:18:38;;;;;;;12.80;11.90;;;7.30;99.90;;;;;;4918378;29;20203;-79
2023/01/03 08:21:06;;;;;;;11.60;10.80;;;7.30;99.90;;;;;;4916169;29;20227;-78
2023/01/03 08:23:33;;;;;;;11.30;10.60;;;7.40;99.90;;;;;;4917207;29;20690;-79
2023/01/03 08:26:01;;;;;;;11.70;10.80;;;7.40;99.90;;;;;;4917026;29;20211;-79
2023/01/03 08:28:28;;;;;;;10.97;10.27;;;7.50;99.90;;;;;;4908951;29;20204;-79
2023/01/03 08:30:57;;;;;;;11.43;10.60;;;7.60;99.90;;;;;;4916374;29;20279;-79
2023/01/03 08:33:26;;;;;;;11.80;10.90;;;7.70;99.90;;;;;;4917866;29;20243;-79
2023/01/03 08:35:58;;;;;;;11.40;10.50;;;7.90;99.90;;;;;;4917254;29;20646;-79
2023/01/03 08:38:30;;;;;;;11.97;11.17;;;8.00;99.90;;;;;;4918252;29;20736;-83
2023/01/03 08:40:58;;;;;;;12.53;11.63;;;8.20;99.90;;;;;;4918753;29;20743;-82
2023/01/03 08:43:25;;;;;;;11.67;10.87;;;8.20;99.90;;;;;;4918667;29;20200;-82
2023/01/03 08:45:52;;;;;;;12.43;11.53;;;8.30;99.90;;;;;;4919503;29;20752;-81
2023/01/03 08:48:22;;;;;;;11.87;11.00;;;8.30;99.90;;;;;;4921714;29;20203;-83
2023/01/03 08:50:48;;;;;;;12.20;11.33;;;8.30;99.90;;;;;;4918568;29;20795;-81
2023/01/03 08:53:15;;;;;;;12.17;11.27;;;8.30;99.90;;;;;;4917185;29;20654;-82
2023/01/03 08:55:43;;;;;;;12.07;11.27;;;8.30;99.90;;;;;;4919386;29;20256;-81
2023/01/03 08:58:10;;;;;;;11.87;11.13;;;8.40;99.90;;;;;;4918682;29;20208;-82
2023/01/03 09:00:37;;;;;;;11.93;11.13;;;8.40;99.90;;;;;;4916932;29;20211;-82
2023/01/03 09:03:04;;;;;;;12.20;11.40;;;8.50;99.90;;;;;;4917721;29;20704;-83
2023/01/03 09:05:32;;;;;;;12.17;11.37;;;8.50;99.90;;;;;;4920966;29;20228;-81
2023/01/03 09:07:59;;;;;;;12.07;11.37;;;8.50;99.90;;;;;;4919017;29;20264;-83
2023/01/03 09:10:26;;;;;;;12.30;11.50;;;8.60;99.90;;;;;;4919091;29;20204;-82
2023/01/03 09:12:52;;;;;;;12.53;11.70;;;8.70;99.90;;;;;;4922551;29;20215;-80
2023/01/03 09:15:19;;;;;;;12.23;11.43;;;8.70;99.90;;;;;;4924381;29;20203;-79
2023/01/03 09:17:48;;;;;;;12.20;11.40;;;8.80;99.90;;;;;;4922327;29;20200;-80
2023/01/03 09:20:17;;;;;;;12.90;12.00;;;8.90;99.90;;;;;;4923012;29;20227;-80
2023/01/03 09:22:46;;;;;;;13.30;12.40;;;8.90;99.90;;;;;;4916622;29;20235;-79
2023/01/03 09:25:14;;;;;;;12.93;12.03;;;8.90;99.90;;;;;;4913177;29;20215;-79
2023/01/03 09:27:45;;;;;;;13.03;12.13;;;8.90;99.90;;;;;;4911802;29;20223;-79
2023/01/03 09:30:13;;;;;;;13.03;12.03;;;9.00;99.90;;;;;;4913193;29;20204;-79
2023/01/03 09:32:40;;;;;;;13.80;12.80;;;9.00;99.90;;;;;;4898930;29;20216;-79
2023/01/03 09:35:08;;;;;;;13.47;12.57;;;9.00;99.90;;;;;;4914099;29;20213;-79
2023/01/03 09:37:35;;;;;;;13.50;12.60;;;9.00;99.90;;;;;;4902654;29;20203;-79
2023/01/03 09:40:03;;;;;;;13.93;12.83;;;9.10;99.90;;;;;;4916565;29;20208;-79
2023/01/03 09:45:21;;;;;;;6.93;5.57;;;9.20;99.90;;;;;;4916921;29;20203;-80
2023/01/03 09:47:48;;;;;;;5.50;5.00;;;9.30;99.90;;;;;;4916359;29;20220;-80
2023/01/03 09:50:20;;;;;;;5.27;4.77;;;9.40;99.90;;;;;;4919037;29;20236;-80
2023/01/03 10:04:55;;;;;;;11.47;10.70;;;9.60;99.90;;;;;;4933448;29;20654;-81
2023/01/03 10:07:36;;;;;;;10.57;9.87;;;9.70;99.90;;;;;;4921098;29;20208;-82
2023/01/03 10:10:15;;;;;;;11.60;10.80;;;9.80;99.90;;;;;;4921290;29;20272;-82
2023/01/03 10:12:55;;;;;;;10.63;10.03;;;10.00;99.90;;;;;;4921349;29;20721;-82
2023/01/03 10:15:30;;;;;;;11.10;10.40;;;10.00;99.90;;;;;;4923108;29;20221;-83
2023/01/03 10:18:12;;;;;;;11.43;10.73;;;10.10;99.90;;;;;;4923119;29;20196;-82
2023/01/03 10:20:46;;;;;;;11.10;10.40;;;10.10;99.90;;;;;;4917435;29;20198;-81
2023/01/03 10:23:13;;;;;;;10.83;10.13;;;10.20;99.90;;;;;;4920562;29;20213;-81
2023/01/03 10:25:43;;;;;;;10.87;10.17;;;10.20;99.90;;;;;;4921729;29;20202;-83
2023/01/03 10:28:17;;;;;;;10.50;9.80;;;10.20;99.90;;;;;;4919777;29;20265;-81
2023/01/03 10:31:08;;;;;;;11.10;10.40;;;10.20;99.90;;;;;;4920432;29;20228;-80
2023/01/03 10:33:39;;;;;;;10.77;10.17;;;10.20;99.90;;;;;;4915100;29;20295;-84
2023/01/03 10:36:08;;;;;;;10.90;10.10;;;10.10;99.90;;;;;;4917974;29;20259;-78
2023/01/03 10:38:35;;;;;;;10.33;9.70;;;10.10;99.90;;;;;;4919083;29;20325;-78
2023/01/03 10:41:03;;;;;;;10.73;10.10;;;10.00;99.90;;;;;;4917109;29;20645;-78
2023/01/03 10:43:37;;;;;;;5.97;5.53;;;10.10;99.90;;;;;;4916320;29;20296;-78
2023/01/03 10:46:06;;;;;;;4.80;4.40;;;10.00;99.90;;;;;;4919378;29;20311;-79
2023/01/03 10:48:38;;;;;;;5.23;4.73;;;9.90;99.90;;;;;;4920945;29;20634;-78
2023/01/03 10:51:06;;;;;;;4.70;4.40;;;9.90;99.90;;;;;;4918691;29;20280;-78
2023/01/03 10:53:40;;;;;;;9.17;8.57;;;9.80;99.90;;;;;;4919216;29;20460;-79
2023/01/03 10:56:07;;;;;;;7.20;6.70;;;9.80;99.90;;;;;;4920783;29;20209;-79
2023/01/03 10:58:36;;;;;;;8.67;8.10;;;9.70;99.90;;;;;;4919330;29;20205;-79
2023/01/03 11:01:18;;;;;;;4.30;4.00;;;9.70;99.90;;;;;;4919210;29;20233;-79
2023/01/03 11:03:45;;;;;;;8.50;7.93;;;9.70;99.90;;;;;;4920149;29;20221;-79
2023/01/03 11:06:14;;;;;;;9.20;8.60;;;9.60;99.90;;;;;;4920333;29;20247;-79
2023/01/03 11:08:44;;;;;;;4.80;4.40;;;9.70;99.90;;;;;;4920167;29;20259;-79
2023/01/03 11:11:28;;;;;;;4.50;4.17;;;9.60;99.90;;;;;;4918148;29;20234;-79
2023/01/03 11:14:15;;;;;;;10.53;9.90;;;9.60;99.90;;;;;;4918799;29;20204;-78
2023/01/03 11:16:42;;;;;;;10.80;10.20;;;9.60;99.90;;;;;;4928378;29;20252;-79
2023/01/03 11:19:17;;;;;;;10.13;9.43;;;9.60;99.90;;;;;;4918750;29;20207;-79
2023/01/03 11:21:48;;;;;;;7.70;7.20;;;9.60;99.90;;;;;;4917829;29;20213;-78
2023/01/03 11:24:24;;;;;;;9.70;9.10;;;9.60;99.90;;;;;;4918775;29;20211;-79
2023/01/03 11:26:57;;;;;;;10.00;9.40;;;9.60;99.90;;;;;;4915634;29;20229;-79
2023/01/03 11:29:42;;;;;;;4.17;3.87;;;9.60;99.90;;;;;;4918268;29;20633;-79
2023/01/03 11:32:23;;;;;;;10.10;9.50;;;9.60;99.90;;;;;;4919849;29;20224;-78
2023/01/03 11:35:31;;;;;;;10.00;9.30;;;9.60;99.90;;;;;;4918118;29;20205;-79
2023/01/03 11:38:10;;;;;;;5.57;5.13;;;9.70;99.90;;;;;;4915251;29;20211;-78
2023/01/03 11:40:45;;;;;;;5.50;5.10;;;9.60;99.90;;;;;;4916849;29;20212;-79
2023/01/03 11:43:27;;;;;;;8.33;7.67;;;9.70;99.90;;;;;;4916529;29;20220;-78
2023/01/03 11:46:12;;;;;;;9.63;8.93;;;9.70;99.90;;;;;;4920546;29;20259;-79
2023/01/03 11:49:07;;;;;;;9.63;9.07;;;9.70;99.90;;;;;;4916596;29;20205;-78
2023/01/03 11:51:41;;;;;;;9.83;9.23;;;9.70;99.90;;;;;;4913970;29;20224;-79
2023/01/03 11:54:15;;;;;;;9.07;8.47;;;9.70;99.90;;;;;;4918388;29;20200;-79
2023/01/03 11:56:44;;;;;;;5.27;4.97;;;9.70;99.90;;;;;;4919382;29;20199;-79
2023/01/03 11:59:31;;;;;;;4.93;4.63;;;9.80;99.90;;;;;;4919382;29;20260;-79
2023/01/03 12:02:33;;;;;;;9.83;9.10;;;9.80;99.90;;;;;;4917397;29;20232;-78
2023/01/03 12:05:17;;;;;;;9.80;9.30;;;9.80;99.90;;;;;;4908890;29;20640;-79
2023/01/03 12:07:55;;;;;;;9.90;9.40;;;9.90;99.90;;;;;;4913379;29;20248;-79
2023/01/03 12:10:29;;;;;;;11.60;10.77;;;9.90;99.90;;;;;;4916687;29;20212;-79
2023/01/03 12:13:10;;;;;;;10.90;10.20;;;9.90;99.90;;;;;;4918243;29;20224;-79
2023/01/03 12:15:44;;;;;;;12.43;11.73;;;9.90;99.90;;;;;;4919395;29;20192;-80
2023/01/03 12:18:20;;;;;;;10.10;9.50;;;9.90;99.90;;;;;;4919205;29;20212;-80
2023/01/03 12:20:54;;;;;;;9.50;9.00;;;9.80;99.90;;;;;;4916717;29;20279;-78
2023/01/03 12:23:33;;;;;;;10.20;9.60;;;9.90;99.90;;;;;;4918664;29;20712;-79
2023/01/03 12:26:04;;;;;;;2.60;2.50;;;9.90;99.90;;;;;;4918890;29;20208;-79
2023/01/03 12:28:36;;;;;;;6.67;6.27;;;9.90;99.90;;;;;;4910175;29;20212;-79
2023/01/03 12:31:08;;;;;;;2.40;2.20;;;9.90;99.90;;;;;;4916728;29;20235;-79
2023/01/03 12:33:41;;;;;;;6.97;6.53;;;9.90;99.90;;;;;;4917114;29;20254;-78
2023/01/03 12:36:23;;;;;;;2.50;2.40;;;9.80;99.90;;;;;;4917796;29;20212;-78
2023/01/03 12:39:06;;;;;;;10.10;9.50;;;9.90;99.90;;;;;;4918880;29;20758;-80
2023/01/03 12:41:38;;;;;;;8.20;7.70;;;10.10;99.90;;;;;;4925756;29;20212;-80
2023/01/03 12:44:14;;;;;;;2.90;2.70;;;9.90;99.90;;;;;;4921605;29;20220;-80
2023/01/03 12:46:46;;;;;;;6.67;6.27;;;10.00;99.90;;;;;;4912910;29;20347;-80
2023/01/03 12:49:17;;;;;;;9.57;8.97;;;10.00;99.90;;;;;;4920125;29;20209;-82
2023/01/03 12:51:45;;;;;;;2.83;2.63;;;10.00;99.90;;;;;;4914386;29;20240;-77
2023/01/03 12:54:26;;;;;;;3.90;3.70;;;10.00;99.90;;;;;;4915601;29;20227;-77
2023/01/03 12:57:31;;;;;;;2.37;2.27;;;10.10;99.90;;;;;;4917405;29;20249;-77
2023/01/03 13:00:25;;;;;;;3.17;2.97;;;10.10;99.90;;;;;;4910003;29;20211;-77
2023/01/03 13:02:57;;;;;;;11.03;10.40;;;10.10;99.90;;;;;;4908314;29;20251;-79
2023/01/03 13:05:28;;;;;;;4.73;4.43;;;10.10;99.90;;;;;;4918322;29;20200;-79
2023/01/03 13:08:05;;;;;;;7.20;6.70;;;10.10;99.90;;;;;;4917403;29;20236;-78
2023/01/03 13:10:36;;;;;;;10.07;9.47;;;10.10;99.90;;;;;;4916371;29;20516;-79
2023/01/03 13:13:03;;;;;;;8.37;7.87;;;10.10;99.90;;;;;;4917633;29;20205;-78
2023/01/03 13:15:33;;;;;;;4.70;4.43;;;10.10;99.90;;;;;;4914588;29;20239;-77
2023/01/03 13:18:18;;;;;;;10.03;9.43;;;10.10;99.90;;;;;;4914522;29;20215;-77
2023/01/03 13:20:47;;;;;;;10.33;9.73;;;10.10;99.90;;;;;;4910040;29;20278;-77
2023/01/03 13:23:33;;;;;;;7.73;7.27;;;10.10;99.90;;;;;;4915348;29;20606;-77
2023/01/03 13:26:24;;;;;;;3.40;3.20;;;10.10;99.90;;;;;;4914379;29;20275;-76
2023/01/03 13:28:51;;;;;;;4.40;4.20;;;10.10;99.90;;;;;;4898015;29;20271;-82
2023/01/03 13:32:02;;;;;;;6.00;5.70;;;10.10;99.90;;;;;;4915273;29;20697;-80
2023/01/03 13:34:34;;;;;;;9.33;8.83;;;10.10;99.90;;;;;;4914777;29;20291;-80
2023/01/03 13:37:16;;;;;;;4.73;4.43;;;10.00;99.90;;;;;;4912069;29;20213;-79
2023/01/03 13:40:00;;;;;;;3.07;2.87;;;10.00;99.90;;;;;;4910626;29;20216;-80
2023/01/03 13:42:29;;;;;;;7.23;6.83;;;10.00;99.90;;;;;;4913665;29;20283;-79
2023/01/03 13:45:38;;;;;;;9.43;8.93;;;10.00;99.90;;;;;;4913895;29;20211;-80
2023/01/03 13:48:16;;;;;;;5.13;4.83;;;10.00;99.90;;;;;;4920521;29;20205;-79
2023/01/03 13:51:19;;;;;;;8.37;7.63;;;10.00;99.90;;;;;;4914788;29;20209;-80
2023/01/03 13:53:56;;;;;;;9.03;8.53;;;10.00;99.90;;;;;;4932102;29;20196;-80
2023/01/03 13:56:26;;;;;;;9.03;8.53;;;10.00;99.90;;;;;;4916675;29;20207;-80
2023/01/03 13:59:00;;;;;;;10.30;9.63;;;10.00;99.90;;;;;;4913241;29;20665;-79
2023/01/03 14:01:55;;;;;;;9.17;8.67;;;10.00;99.90;;;;;;4916262;29;20590;-79
2023/01/03 14:04:52;;;;;;;9.20;8.70;;;9.90;99.90;;;;;;4913888;29;20224;-79
2023/01/03 14:08:07;;;;;;;9.63;9.13;;;9.90;99.90;;;;;;4911510;29;20203;-78
2023/01/03 14:10:53;;;;;;;9.60;9.10;;;9.90;99.90;;;;;;4858207;29;20206;-79
2023/01/03 14:13:35;;;;;;;9.50;8.90;;;9.80;99.90;;;;;;4842625;29;20798;-77
2023/01/03 14:16:21;;;;;;;9.50;9.00;;;9.80;99.90;;;;;;4890748;29;20268;-77
2023/01/03 14:18:55;;;;;;;9.10;8.50;;;9.80;99.90;;;;;;4904369;29;20339;-80
2023/01/03 14:21:26;;;;;;;9.30;8.80;;;9.80;99.90;;;;;;4913962;29;20282;-77
2023/01/03 14:23:57;;;;;;;9.47;8.87;;;9.70;99.90;;;;;;4916814;29;20216;-77
2023/01/03 14:26:24;;;;;;;9.23;8.73;;;9.70;99.90;;;;;;4917763;29;20204;-76
2023/01/03 14:28:54;;;;;;;9.10;8.60;;;9.70;99.90;;;;;;4912628;29;20208;-77
2023/01/03 14:31:23;;;;;;;9.20;8.70;;;9.70;99.90;;;;;;4912992;29;20792;-77
2023/01/03 14:33:54;;;;;;;9.10;8.60;;;9.60;99.90;;;;;;4914345;29;20211;-77
2023/01/03 14:36:21;;;;;;;9.80;9.20;;;9.60;99.90;;;;;;4918539;29;20211;-78
2023/01/03 14:38:50;;;;;;;9.10;8.60;;;9.60;99.90;;;;;;4918317;29;20200;-77
2023/01/03 14:41:30;;;;;;;8.97;8.40;;;9.60;99.90;;;;;;4918637;29;20227;-77
2023/01/03 14:44:03;;;;;;;9.00;8.50;;;9.50;99.90;;;;;;4917911;29;20314;-77
2023/01/03 14:46:32;;;;;;;9.40;8.90;;;9.50;99.90;;;;;;4919240;29;20196;-79
2023/01/03 14:49:02;;;;;;;9.47;8.87;;;9.40;99.90;;;;;;4917940;29;20200;-78
2023/01/03 14:51:31;;;;;;;9.00;8.50;;;9.40;99.90;;;;;;4917147;29;20255;-78
2023/01/03 14:53:59;;;;;;;9.00;8.40;;;9.40;99.90;;;;;;4918743;29;20284;-78
2023/01/03 14:56:27;;;;;;;9.30;8.80;;;9.30;99.90;;;;;;4917551;29;20651;-78
2023/01/03 14:58:55;;;;;;;9.20;8.70;;;9.30;99.90;;;;;;4917724;29;20204;-78
2023/01/03 15:01:27;;;;;;;9.43;8.93;;;9.30;99.90;;;;;;4916773;29;20750;-78
2023/01/03 15:03:55;;;;;;;9.10;8.60;;;9.20;99.90;;;;;;4918839;29;20227;-77
2023/01/03 15:06:24;;;;;;;9.10;8.50;;;9.20;99.90;;;;;;4917848;29;20263;-78
2023/01/03 15:08:53;;;;;;;9.93;9.33;;;9.10;99.90;;;;;;4917339;29;20208;-78
2023/01/03 15:11:27;;;;;;;9.63;9.13;;;9.10;99.90;;;;;;4917081;29;20755;-78
2023/01/03 15:14:01;;;;;;;9.50;9.00;;;8.90;99.90;;;;;;4918596;29;20207;-78
2023/01/03 15:16:36;;;;;;;9.80;9.10;;;8.90;99.90;;;;;;4917488;29;20211;-78
2023/01/03 15:19:15;;;;;;;9.07;8.57;;;8.80;99.90;;;;;;4917017;29;20196;-78
2023/01/03 15:21:42;;;;;;;9.50;9.00;;;8.80;99.90;;;;;;4917213;29;20302;-77
2023/01/03 15:24:15;;;;;;;9.60;9.10;;;8.60;99.90;;;;;;4916982;29;20219;-79
2023/01/03 15:26:45;;;;;;;9.53;8.93;;;8.60;99.90;;;;;;4915155;29;20216;-79
2023/01/03 15:29:15;;;;;;;9.80;9.20;;;8.50;99.90;;;;;;4917290;29;20669;-77
2023/01/03 15:32:02;;;;;;;10.03;9.43;;;8.40;99.90;;;;;;4914286;29;20232;-78
2023/01/03 15:34:38;;;;;;;9.63;9.10;;;8.30;99.90;;;;;;4932203;29;20202;-78
2023/01/03 15:37:13;;;;;;;9.80;9.30;;;8.10;99.90;;;;;;4918459;29;20208;-78
2023/01/03 15:39:42;;;;;;;9.87;9.27;;;8.00;99.90;;;;;;4915003;29;20208;-77
2023/01/03 15:45:00;;;;;;;9.60;9.00;;;7.80;99.90;;;;;;4931162;29;20212;-79
2023/01/03 15:47:30;;;;;;;9.97;9.27;;;7.70;99.90;;;;;;4904048;29;20242;-80
2023/01/03 15:50:00;;;;;;;9.70;9.20;;;7.60;99.90;;;;;;4922138;29;20721;-78
2023/01/03 15:52:28;;;;;;;9.83;9.23;;;7.50;99.90;;;;;;4919234;29;20244;-78
2023/01/03 15:54:55;;;;;;;11.20;10.50;;;7.40;99.90;;;;;;4917900;29;20634;-77
2023/01/03 15:57:23;;;;;;;11.87;11.00;;;7.30;99.90;;;;;;4918839;29;20715;-77
2023/01/03 15:59:55;;;;;;;11.80;11.00;;;7.10;99.90;;;;;;4917101;29;20564;-78
2023/01/03 16:02:23;;;;;;;13.30;12.20;;;7.00;99.90;;;;;;4919274;29;20243;-78
2023/01/03 16:04:52;;;;;;;15.70;14.30;;;6.90;99.90;;;;;;4919329;29;20638;-78
2023/01/03 16:07:21;;;;;;;13.17;12.17;;;6.70;99.90;;;;;;4918781;29;20208;-78
2023/01/03 16:09:48;;;;;;;13.87;12.87;;;6.60;99.90;;;;;;4918869;29;20657;-78
2023/01/03 16:12:17;;;;;;;12.57;11.67;;;6.50;99.90;;;;;;4919244;29;20230;-78
2023/01/03 16:14:46;;;;;;;12.43;11.53;;;6.40;99.90;;;;;;4917728;29;20237;-77
2023/01/03 16:17:19;;;;;;;12.13;11.23;;;6.40;99.90;;;;;;4918431;29;20210;-77
2023/01/03 16:19:46;;;;;;;11.90;11.10;;;6.30;99.90;;;;;;4919393;29;20218;-78
2023/01/03 16:22:14;;;;;;;12.73;11.73;;;6.30;99.90;;;;;;4920004;29;20235;-78
2023/01/03 16:24:41;;;;;;;12.83;11.83;;;6.20;99.90;;;;;;4919585;29;20210;-77
2023/01/03 16:27:13;;;;;;;13.00;11.90;;;6.20;99.90;;;;;;4920946;29;20209;-78
2023/01/03 16:29:40;;;;;;;13.10;12.10;;;6.20;99.90;;;;;;4918721;29;21127;-80
2023/01/03 16:32:11;;;;;;;13.10;12.10;;;6.20;99.90;;;;;;4918111;29;20236;-82
2023/01/03 16:34:37;;;;;;;12.83;11.83;;;6.10;99.90;;;;;;4918454;29;20203;-78
2023/01/03 16:37:04;;;;;;;12.80;11.80;;;6.10;99.90;;;;;;4917039;29;20199;-78
2023/01/03 16:39:32;;;;;;;12.97;11.87;;;6.10;99.90;;;;;;4918194;29;20205;-77
2023/01/03 16:42:14;;;;;;;12.73;11.83;;;6.10;99.90;;;;;;4918001;29;20228;-80
2023/01/03 16:44:43;;;;;;;13.10;12.10;;;6.00;99.90;;;;;;4917825;29;20847;-80
2023/01/03 16:47:15;;;;;;;13.10;12.10;;;6.00;99.90;;;;;;4915846;29;20660;-80
2023/01/03 16:49:43;;;;;;;13.27;12.27;;;6.00;99.90;;;;;;4916400;29;20203;-77
2023/01/03 16:52:14;;;;;;;13.70;12.70;;;6.00;99.90;;;;;;4918364;29;20261;-76
2023/01/03 16:54:43;;;;;;;14.90;13.70;;;6.00;99.90;;;;;;4915399;29;20202;-77
2023/01/03 16:57:16;;;;;;;17.30;15.67;;;6.00;99.90;;;;;;4916229;29;20206;-77
2023/01/03 16:59:43;;;;;;;19.97;18.27;;;6.00;99.90;;;;;;4916299;29;20284;-79
2023/01/03 17:02:10;;;;;;;18.07;16.47;;;6.00;99.90;;;;;;4917692;29;20246;-80
2023/01/03 17:04:37;;;;;;;17.50;16.00;;;5.90;99.90;;;;;;4918122;29;20868;-80
2023/01/03 17:07:04;;;;;;;16.90;15.50;;;5.90;99.90;;;;;;4916829;29;20237;-78